Terminal Aerodrome Forecast
Issued by NWS

Home | Current Version | Previous Version | Text Only | Print | Product List | Glossary On
Versions: 1 2 3 4 5 6 7 8 9 10 11 12 13 14 15 16 17 18 19 20 21 22 23 24 25 26 27 28 29 30 31 32
000
FTUS45 KGJT 101727
TAFEGE
TAF
KEGE 101727Z 1018/1118 23005KT P6SM FEW120 BKN150
     FM102000 25008KT P6SM VCTS SCT080CB BKN120
      TEMPO 1021/1101 TS
     FM110100 16006KT P6SM VCSH SCT070 OVC100
     FM110600 VRB05KT P6SM SCT100 BKN200
     FM111200 VRB03KT P6SM SCT150=

USA.gov is the U.S. government's official web portal to all federal, state and local government web resources and services.